Seattle Tacoma International Airport
KSEA : now visible

Airfield :











YOU CAN JOIN US ON...

 
LOGIN :

Register | Disclaimer

   EN    FR    IT 

 









Legend :    VFR   Marginal VFR   IFR   Intensive IFR   Very Intensive IFR
Visi :
Ceiling :
>= 8 km
>= 3000ft
5 to 8 km
1000 to 3000 ft
1500m to 5 km
500 to 1000 ft
800 to 1500m
200 to 500 ft
< 800m
< 200 ft
Symbols :   Thunderstorms  Fog  Heavy snow  Heavy precipitations  Wind > 20 kt







- Airport Elevation : 433 ft
- IATA code : SEA


KSEA - Seattle Tacoma International

CURRENT METAR :
  • 160553Z 21004KT 10SM BKN065 OVC250 14/11 A2978 RMK AO2 SLP088 T01440111 10161 20139 53003

EXPIRED METARs :
  • 160453Z 26003KT 10SM FEW060 BKN220 14/12 A2977 RMK AO2 SLP086 T01390117
  • 160353Z 17006KT 10SM FEW045 BKN120 14/12 A2977 RMK AO2 SLP087 T01440117

TAF KSEA
Valid from the 16 at 06:00 until the 17 at 12:00 UTC


160539Z 1606/1712 20008KT P6SM VCSH SCT050 BKN220 OVC250
FM160900 19004KT P6SM VCSH SCT020 OVC035
FM161200 18004KT P6SM SCT015 OVC030
FM161800 23005KT P6SM BKN035
FM162300 23008KT P6SM BKN050 BKN100
FM170800 18009KT P6SM OVC050
No reported NOTAMs for that airfield.



MET'MAP, your aeronautical weather chart ! - Copyright ORBIFLY December 2007 - Disclaimer

ORBIFLY MET'MAP TEAM :

Programming & Development : Alexandra Zaïnal
Concept & Development : Baudouin d'Aumeries
Co-Development & Prog : Marc-Olivier Méhu
Technical & hardware support : Manuel Goepfert

Contact : metmap@orbifly.com




SOURCES & CREDITS :

   NOAA       Earth
Advisory